createdAt,value
2019-05-02T00:00:53.500Z,13.00
2019-05-02T00:03:27.408Z,13.00
2019-05-02T00:06:02.900Z,12.90
2019-05-02T00:08:34.391Z,12.90
2019-05-02T00:11:09.379Z,12.80
2019-05-02T00:13:41.553Z,12.90
2019-05-02T00:16:15.316Z,12.80
2019-05-02T00:18:47.628Z,12.80
2019-05-02T00:21:19.959Z,12.80
2019-05-02T00:23:52.258Z,12.80
2019-05-02T00:26:24.844Z,12.70
2019-05-02T00:28:58.268Z,12.70
2019-05-02T00:31:30.497Z,12.70
2019-05-02T00:34:02.780Z,12.70
2019-05-02T00:36:34.984Z,12.70
2019-05-02T00:39:13.270Z,12.70
2019-05-02T00:41:41.923Z,12.80
2019-05-02T00:44:14.051Z,12.80
2019-05-02T00:46:46.345Z,12.80
2019-05-02T00:49:19.531Z,12.80
2019-05-02T00:51:51.788Z,12.90
2019-05-02T00:54:25.247Z,12.90
2019-05-02T00:56:57.722Z,12.90
2019-05-02T00:59:30.864Z,12.80
2019-05-02T01:02:19.442Z,12.90
2019-05-02T01:04:51.454Z,12.80
2019-05-02T01:07:25.480Z,12.80
2019-05-02T01:09:57.418Z,12.80
2019-05-02T01:12:30.661Z,12.80
2019-05-02T01:15:03.236Z,12.80
2019-05-02T01:17:36.508Z,12.80
2019-05-02T01:20:09.869Z,12.80
2019-05-02T01:22:42.294Z,12.80
2019-05-02T01:25:17.125Z,12.80
2019-05-02T01:28:07.041Z,12.70
2019-05-02T01:30:48.058Z,12.80
2019-05-02T01:33:29.917Z,12.70
2019-05-02T01:36:10.332Z,12.70
2019-05-02T01:38:45.617Z,12.70
2019-05-02T01:41:17.736Z,12.70
2019-05-02T01:43:50.021Z,12.70
2019-05-02T01:46:24.014Z,12.70
2019-05-02T01:48:55.852Z,12.70
2019-05-02T01:51:28.030Z,12.70
2019-05-02T01:54:04.996Z,12.70
2019-05-02T01:56:34.983Z,12.70
2019-05-02T01:59:07.147Z,12.70
2019-05-02T02:01:39.148Z,12.80
2019-05-02T02:04:11.356Z,12.80
2019-05-02T02:06:45.188Z,12.80
2019-05-02T02:09:18.030Z,12.80
2019-05-02T02:11:50.428Z,12.70
2019-05-02T02:14:22.370Z,12.80
2019-05-02T02:16:54.648Z,12.70
2019-05-02T02:19:39.138Z,12.80
2019-05-02T02:22:39.240Z,12.80
2019-05-02T02:25:42.807Z,12.80
2019-05-02T02:28:15.058Z,12.80
2019-05-02T02:30:47.302Z,12.80
2019-05-02T02:33:19.262Z,12.80
2019-05-02T02:35:52.153Z,12.80
2019-05-02T02:38:26.904Z,12.80
2019-05-02T02:40:58.442Z,12.80
2019-05-02T02:43:34.875Z,12.80
2019-05-02T02:46:13.424Z,12.80
2019-05-02T02:48:45.613Z,12.70
2019-05-02T02:51:23.647Z,12.80
2019-05-02T02:54:03.101Z,12.70
2019-05-02T02:56:25.309Z,12.70
2019-05-02T02:58:57.722Z,12.70
2019-05-02T03:01:31.278Z,12.70
2019-05-02T03:04:09.541Z,12.70
2019-05-02T03:06:38.384Z,12.70
2019-05-02T03:09:12.886Z,12.70
2019-05-02T03:12:04.558Z,12.60
2019-05-02T03:14:41.138Z,12.60
2019-05-02T03:17:13.238Z,12.60
2019-05-02T03:19:45.379Z,12.60
2019-05-02T03:22:17.934Z,12.60
2019-05-02T03:24:50.174Z,12.50
2019-05-02T03:27:22.475Z,12.50
2019-05-02T03:29:54.624Z,12.40
2019-05-02T03:32:34.509Z,12.50
2019-05-02T03:35:00.498Z,12.40
2019-05-02T03:37:33.689Z,12.40
2019-05-02T03:40:06.509Z,12.40
2019-05-02T03:42:44.546Z,12.40
2019-05-02T03:45:13.059Z,12.40
2019-05-02T03:47:46.522Z,12.40
2019-05-02T03:50:31.176Z,12.30
2019-05-02T03:52:52.639Z,12.30
2019-05-02T03:55:30.873Z,12.30
2019-05-02T03:57:59.108Z,12.30
2019-05-02T04:00:31.348Z,12.20
2019-05-02T04:03:04.073Z,12.20
2019-05-02T04:05:40.481Z,12.20
2019-05-02T04:08:20.077Z,12.20
2019-05-02T04:11:17.279Z,12.20
2019-05-02T04:13:51.822Z,12.10
2019-05-02T04:16:28.136Z,12.10
2019-05-02T04:19:05.997Z,12.20
2019-05-02T04:21:38.186Z,12.10
2019-05-02T04:24:15.729Z,12.00
2019-05-02T04:26:53.666Z,11.90
2019-05-02T04:29:24.539Z,11.80
2019-05-02T04:31:54.838Z,11.80
2019-05-02T04:34:26.830Z,11.80
2019-05-02T04:37:01.311Z,11.80
2019-05-02T04:39:33.272Z,11.90
2019-05-02T04:42:13.080Z,12.10
2019-05-02T04:44:46.288Z,12.40
2019-05-02T04:47:17.451Z,12.60
2019-05-02T04:49:49.126Z,12.60
2019-05-02T04:52:21.292Z,12.60
2019-05-02T04:55:00.485Z,12.60
2019-05-02T04:57:36.718Z,12.70
2019-05-02T05:00:06.147Z,12.90
2019-05-02T05:02:37.345Z,12.90
2019-05-02T05:05:09.255Z,13.10
2019-05-02T05:07:46.295Z,13.20
2019-05-02T05:10:18.542Z,13.10
2019-05-02T05:12:50.195Z,12.90
2019-05-02T05:15:35.450Z,12.70
2019-05-02T05:17:58.198Z,12.60
2019-05-02T05:20:30.481Z,12.80
2019-05-02T05:23:02.504Z,13.00
2019-05-02T05:25:39.592Z,13.20
2019-05-02T05:28:11.628Z,13.80
2019-05-02T05:30:45.324Z,14.40
2019-05-02T05:33:18.272Z,14.50
2019-05-02T05:35:52.587Z,14.40
2019-05-02T05:38:28.592Z,14.10
2019-05-02T05:40:58.112Z,14.30
2019-05-02T05:43:30.544Z,14.10
2019-05-02T05:46:12.416Z,14.00
2019-05-02T05:48:40.409Z,14.00
2019-05-02T05:51:11.782Z,13.90
2019-05-02T05:53:44.128Z,13.70
2019-05-02T05:56:18.107Z,13.80
2019-05-02T05:58:52.489Z,13.80
2019-05-02T06:01:26.142Z,14.10
2019-05-02T06:03:58.107Z,14.30
2019-05-02T06:06:30.414Z,14.20
2019-05-02T06:09:02.566Z,14.40
2019-05-02T06:11:35.932Z,14.50
2019-05-02T06:14:08.070Z,14.70
2019-05-02T06:16:40.163Z,14.80
2019-05-02T06:19:12.990Z,14.40
2019-05-02T06:21:46.715Z,14.00
2019-05-02T06:24:19.061Z,13.90
2019-05-02T06:26:51.784Z,13.60
2019-05-02T06:29:24.223Z,13.40
2019-05-02T06:31:58.341Z,13.30
2019-05-02T06:34:30.485Z,13.10
2019-05-02T06:37:02.850Z,13.20
2019-05-02T06:39:35.264Z,13.00
2019-05-02T06:42:07.514Z,12.90
2019-05-02T06:44:39.669Z,12.80
2019-05-02T06:47:11.687Z,12.80
2019-05-02T06:49:43.770Z,12.70
2019-05-02T06:52:16.055Z,12.70
2019-05-02T06:54:49.330Z,12.60
2019-05-02T06:57:24.007Z,12.80
2019-05-02T06:59:56.492Z,12.80
2019-05-02T07:02:33.581Z,12.70
2019-05-02T07:05:02.581Z,12.90
2019-05-02T07:07:37.105Z,13.00
2019-05-02T07:10:09.514Z,13.20
2019-05-02T07:12:46.057Z,13.20
2019-05-02T07:15:38.369Z,13.50
2019-05-02T07:18:12.271Z,13.80
2019-05-02T07:20:44.830Z,13.90
2019-05-02T07:23:18.359Z,13.80
2019-05-02T07:25:50.944Z,13.90
2019-05-02T07:28:24.089Z,14.50
2019-05-02T07:30:57.184Z,14.90
2019-05-02T07:33:32.369Z,15.00
2019-05-02T07:36:03.085Z,15.00
2019-05-02T07:38:35.406Z,15.10
2019-05-02T07:41:07.842Z,15.00
2019-05-02T07:43:39.887Z,14.90
2019-05-02T07:46:16.305Z,15.00
2019-05-02T07:48:48.858Z,15.60
2019-05-02T07:51:21.307Z,15.80
2019-05-02T07:53:55.536Z,15.90
2019-05-02T07:56:27.097Z,15.80
2019-05-02T07:58:59.260Z,16.20
2019-05-02T08:01:31.410Z,16.10
2019-05-02T08:04:04.818Z,15.70
2019-05-02T08:06:40.063Z,15.30
2019-05-02T08:09:11.512Z,15.00
2019-05-02T08:11:43.907Z,14.90
2019-05-02T08:14:16.365Z,15.00
2019-05-02T08:16:48.570Z,15.10
2019-05-02T08:19:23.468Z,15.30
2019-05-02T08:21:54.609Z,15.50
2019-05-02T08:24:26.806Z,15.60
2019-05-02T08:27:16.819Z,15.70
2019-05-02T08:29:48.812Z,15.30
2019-05-02T08:32:21.154Z,15.50
2019-05-02T08:34:53.507Z,15.50
2019-05-02T08:37:25.795Z,15.70
2019-05-02T08:39:58.010Z,15.70
2019-05-02T08:42:32.507Z,15.90
2019-05-02T08:45:04.935Z,16.10
2019-05-02T08:47:37.195Z,16.40
2019-05-02T08:50:09.429Z,16.50
2019-05-02T08:52:42.361Z,16.60
2019-05-02T08:55:15.467Z,17.00
2019-05-02T08:57:47.858Z,17.40
2019-05-02T09:00:20.654Z,17.90
2019-05-02T09:02:57.125Z,18.30
2019-05-02T09:05:26.833Z,18.10
2019-05-02T09:07:59.057Z,18.20
2019-05-02T09:10:31.194Z,17.80
2019-05-02T09:13:03.277Z,17.30
2019-05-02T09:15:40.100Z,17.10
2019-05-02T09:18:09.155Z,16.60
2019-05-02T09:20:42.375Z,16.40
2019-05-02T09:23:14.873Z,16.20
2019-05-02T09:25:47.047Z,16.20
2019-05-02T09:28:23.948Z,16.10
2019-05-02T09:30:57.425Z,16.10
2019-05-02T09:33:26.688Z,16.10
2019-05-02T09:35:59.036Z,16.20
2019-05-02T09:38:32.857Z,16.30
2019-05-02T09:41:16.159Z,16.20
2019-05-02T09:43:40.229Z,16.30
2019-05-02T09:46:16.513Z,16.10
2019-05-02T09:48:46.305Z,16.00
2019-05-02T09:51:18.373Z,15.90
2019-05-02T09:53:52.372Z,16.00
2019-05-02T09:56:24.262Z,16.10
2019-05-02T09:59:04.729Z,15.90
2019-05-02T10:01:34.425Z,15.60
2019-05-02T10:10:37.052Z,15.80
2019-05-02T10:13:07.910Z,15.70
2019-05-02T10:15:41.950Z,15.80
2019-05-02T10:18:14.557Z,15.90
2019-05-02T10:20:46.850Z,15.50
2019-05-02T10:23:20.872Z,15.40
2019-05-02T10:25:52.405Z,15.60
2019-05-02T10:28:24.173Z,15.70
2019-05-02T10:30:56.863Z,15.60
2019-05-02T10:33:33.557Z,15.60
2019-05-02T10:36:02.768Z,15.40
2019-05-02T10:38:34.713Z,15.40
2019-05-02T10:41:07.302Z,15.20
2019-05-02T10:43:39.025Z,15.10
2019-05-02T10:46:27.753Z,15.30
2019-05-02T10:49:12.373Z,15.30
2019-05-02T10:51:49.683Z,15.20
2019-05-02T10:54:16.882Z,14.90
2019-05-02T10:56:48.848Z,15.00
2019-05-02T10:59:21.991Z,15.60
2019-05-02T11:02:12.875Z,16.00
2019-05-02T11:04:49.768Z,16.10
2019-05-02T11:07:26.070Z,15.90
2019-05-02T11:09:57.353Z,15.90
2019-05-02T11:13:03.500Z,15.90
2019-05-02T11:16:09.673Z,16.00
2019-05-02T11:19:03.654Z,16.10
2019-05-02T11:21:35.568Z,16.70
2019-05-02T11:24:07.397Z,16.50
2019-05-02T11:26:40.076Z,16.30
2019-05-02T11:29:12.217Z,16.30
2019-05-02T11:31:44.143Z,16.40
2019-05-02T11:34:16.036Z,16.30
2019-05-02T11:36:47.724Z,16.30
2019-05-02T11:39:28.035Z,16.40
2019-05-02T11:41:52.960Z,16.20
2019-05-02T11:44:24.739Z,16.50
2019-05-02T11:46:56.390Z,16.50
2019-05-02T11:49:28.284Z,16.50
2019-05-02T11:52:03.894Z,16.40
2019-05-02T11:54:33.646Z,16.40
2019-05-02T11:57:05.613Z,16.40
2019-05-02T11:59:37.417Z,16.30
2019-05-02T12:02:22.052Z,16.10
2019-05-02T12:04:55.556Z,16.00
2019-05-02T12:07:27.399Z,16.20
2019-05-02T12:10:02.649Z,16.20
2019-05-02T12:12:36.250Z,16.50
2019-05-02T12:15:06.750Z,16.70
2019-05-02T12:17:38.593Z,16.60
2019-05-02T12:20:11.865Z,16.60
2019-05-02T12:22:43.708Z,16.70
2019-05-02T12:25:15.581Z,16.80
2019-05-02T12:27:47.472Z,16.90
2019-05-02T12:30:19.174Z,16.90
2019-05-02T12:32:53.126Z,16.90
2019-05-02T12:35:25.023Z,16.80
2019-05-02T12:37:56.810Z,16.90
2019-05-02T12:40:28.529Z,16.90
2019-05-02T12:43:02.272Z,16.80
2019-05-02T12:45:33.784Z,16.40
2019-05-02T12:48:06.463Z,16.50
2019-05-02T12:50:38.224Z,16.50
2019-05-02T12:53:09.923Z,16.70
2019-05-02T12:55:42.158Z,16.30
2019-05-02T12:58:14.453Z,16.30
2019-05-02T13:00:46.403Z,16.30
2019-05-02T13:03:36.783Z,16.30
2019-05-02T13:06:08.701Z,16.40
2019-05-02T13:08:52.041Z,16.20
2019-05-02T13:11:37.007Z,16.00
2019-05-02T13:14:16.811Z,16.10
2019-05-02T13:16:43.080Z,16.10
2019-05-02T13:19:18.405Z,16.20
2019-05-02T13:22:07.670Z,16.20
2019-05-02T13:24:47.053Z,16.30
2019-05-02T13:27:19.243Z,16.30
2019-05-02T13:29:52.457Z,16.10
2019-05-02T13:32:29.534Z,15.70
2019-05-02T13:35:18.800Z,15.70
2019-05-02T13:37:51.784Z,15.80
2019-05-02T13:40:36.912Z,15.90
2019-05-02T13:43:08.875Z,15.70
2019-05-02T13:46:05.569Z,15.80
2019-05-02T13:48:37.473Z,15.80
2019-05-02T13:51:11.746Z,15.60
2019-05-02T13:54:02.265Z,15.50
2019-05-02T13:56:52.702Z,15.60
2019-05-02T13:59:24.402Z,15.60
2019-05-02T14:01:56.252Z,15.70
2019-05-02T14:04:28.015Z,15.70
2019-05-02T14:06:59.690Z,15.70
2019-05-02T14:09:52.670Z,15.90
2019-05-02T14:12:42.204Z,15.80
2019-05-02T14:15:15.710Z,15.80
2019-05-02T14:17:48.568Z,15.70
2019-05-02T14:20:22.374Z,15.90
2019-05-02T14:22:54.515Z,16.10
2019-05-02T14:25:26.444Z,15.90
2019-05-02T14:27:58.156Z,15.70
2019-05-02T14:30:37.079Z,15.80
2019-05-02T14:33:07.563Z,15.90
2019-05-02T14:35:39.381Z,16.00
2019-05-02T14:38:15.313Z,15.90
2019-05-02T14:41:05.561Z,15.80
2019-05-02T14:43:53.057Z,15.90
2019-05-02T14:46:33.260Z,16.00
2019-05-02T14:49:02.735Z,15.90
2019-05-02T14:51:36.650Z,15.90
2019-05-02T14:54:08.794Z,15.90
2019-05-02T14:56:48.689Z,15.90
2019-05-02T14:59:22.598Z,15.80
2019-05-02T15:01:57.937Z,15.70
2019-05-02T15:04:31.974Z,15.60
2019-05-02T15:07:04.924Z,15.50
2019-05-02T15:09:36.627Z,15.40
2019-05-02T15:12:14.257Z,15.50
2019-05-02T15:14:43.247Z,15.60
2019-05-02T15:17:14.988Z,15.70
2019-05-02T15:19:46.759Z,15.80
2019-05-02T15:22:18.748Z,15.80
2019-05-02T15:24:52.760Z,15.70
2019-05-02T15:27:24.343Z,15.70
2019-05-02T15:30:01.895Z,15.40
2019-05-02T15:32:37.311Z,15.20
2019-05-02T15:35:37.600Z,15.10
2019-05-02T15:38:09.423Z,15.10
2019-05-02T15:40:49.738Z,15.00
2019-05-02T15:43:15.494Z,14.90
2019-05-02T15:45:47.391Z,14.90
2019-05-02T15:48:22.784Z,14.80
2019-05-02T15:50:55.350Z,14.70
2019-05-02T15:54:01.980Z,14.70
2019-05-02T15:56:24.275Z,14.70
2019-05-02T15:58:58.012Z,14.80
2019-05-02T16:01:41.217Z,14.60
2019-05-02T16:04:17.198Z,14.40
2019-05-02T16:06:47.670Z,14.40
2019-05-02T16:09:21.498Z,14.40
2019-05-02T16:11:56.747Z,14.30
2019-05-02T16:14:27.069Z,14.30
2019-05-02T16:17:03.177Z,14.30
2019-05-02T16:19:37.013Z,14.30
2019-05-02T16:22:23.012Z,14.40
2019-05-02T16:24:56.656Z,14.40
2019-05-02T16:27:45.368Z,14.40
2019-05-02T16:30:19.855Z,14.40
2019-05-02T16:32:55.104Z,14.30
2019-05-02T16:35:27.941Z,14.30
2019-05-02T16:37:59.816Z,14.40
2019-05-02T16:40:32.824Z,14.40
2019-05-02T16:43:05.162Z,14.40
2019-05-02T16:45:37.045Z,14.30
2019-05-02T16:48:08.898Z,14.20
2019-05-02T16:50:42.081Z,14.10
2019-05-02T16:53:17.257Z,13.90
2019-05-02T16:55:47.755Z,13.70
2019-05-02T16:58:19.429Z,13.70
2019-05-02T17:00:52.808Z,13.60
2019-05-02T17:03:26.365Z,13.60
2019-05-02T17:05:58.387Z,13.50
2019-05-02T17:08:49.587Z,13.40
2019-05-02T17:11:35.854Z,13.40
2019-05-02T17:14:06.979Z,13.30
2019-05-02T17:16:39.290Z,13.40
2019-05-02T17:19:12.305Z,13.40
2019-05-02T17:21:52.755Z,13.30
2019-05-02T17:24:22.670Z,13.30
2019-05-02T17:26:51.834Z,13.40
2019-05-02T17:29:23.679Z,13.40
2019-05-02T17:31:59.206Z,13.40
2019-05-02T17:34:30.248Z,13.40
2019-05-02T17:37:04.867Z,13.30
2019-05-02T17:39:37.368Z,13.20
2019-05-02T17:42:09.026Z,13.10
2019-05-02T17:44:41.653Z,13.10
2019-05-02T17:47:14.337Z,13.10
2019-05-02T17:49:46.505Z,13.00
2019-05-02T17:52:26.982Z,12.90
2019-05-02T17:55:01.718Z,12.90
2019-05-02T17:57:33.518Z,12.80
2019-05-02T18:00:07.594Z,12.80
2019-05-02T18:02:42.270Z,12.70
2019-05-02T18:05:14.404Z,12.70
2019-05-02T18:07:46.283Z,12.70
2019-05-02T18:10:22.176Z,12.60
2019-05-02T18:12:56.667Z,12.60
2019-05-02T18:15:24.780Z,12.50
2019-05-02T18:17:59.674Z,12.50
2019-05-02T18:20:30.049Z,12.40
2019-05-02T18:23:02.793Z,12.40
2019-05-02T18:25:35.090Z,12.40
2019-05-02T18:28:06.887Z,12.40
2019-05-02T18:30:38.510Z,12.30
2019-05-02T18:33:11.989Z,12.30
2019-05-02T18:35:46.894Z,12.30
2019-05-02T18:38:20.907Z,12.20
2019-05-02T18:40:51.747Z,12.20
2019-05-02T18:43:23.683Z,12.20
2019-05-02T18:45:58.243Z,12.20
2019-05-02T18:48:29.060Z,12.10
2019-05-02T18:51:01.620Z,12.10
2019-05-02T18:53:33.490Z,12.10
2019-05-02T18:56:05.386Z,12.10
2019-05-02T18:58:41.321Z,12.00
2019-05-02T19:01:15.952Z,12.00
2019-05-02T19:03:47.000Z,12.00
2019-05-02T19:06:17.352Z,12.00
2019-05-02T19:08:52.196Z,11.90
2019-05-02T19:11:26.929Z,11.90
2019-05-02T19:13:57.236Z,11.90
2019-05-02T19:16:29.046Z,11.90
2019-05-02T19:19:01.735Z,11.80
2019-05-02T19:21:36.806Z,11.80
2019-05-02T19:24:06.965Z,11.80
2019-05-02T19:26:41.710Z,11.80
2019-05-02T19:29:24.733Z,11.80
2019-05-02T19:31:57.182Z,11.80
2019-05-02T19:34:29.015Z,11.80
2019-05-02T19:37:02.839Z,11.70
2019-05-02T19:39:39.021Z,11.70
2019-05-02T19:42:09.866Z,11.70
2019-05-02T19:44:42.080Z,11.70
2019-05-02T19:47:17.449Z,11.70
2019-05-02T19:49:52.394Z,11.60
2019-05-02T19:52:22.211Z,11.60
2019-05-02T19:54:53.943Z,11.60
2019-05-02T19:57:26.454Z,11.50
2019-05-02T20:00:04.926Z,11.50
2019-05-02T20:02:32.806Z,11.50
2019-05-02T20:05:06.263Z,11.50
2019-05-02T20:07:38.022Z,11.40
2019-05-02T20:10:12.192Z,11.40
2019-05-02T20:12:48.110Z,11.40
2019-05-02T20:15:25.336Z,11.30
2019-05-02T20:17:53.498Z,11.30
2019-05-02T20:21:25.975Z,11.30
2019-05-02T20:23:53.283Z,11.30
2019-05-02T20:26:25.880Z,11.20
2019-05-02T20:28:57.512Z,11.20
2019-05-02T20:31:29.367Z,11.10
2019-05-02T20:34:02.571Z,11.10
2019-05-02T20:36:34.470Z,11.10
2019-05-02T20:39:09.525Z,11.00
2019-05-02T20:41:41.999Z,11.00
2019-05-02T20:44:13.904Z,11.00
2019-05-02T20:46:46.616Z,11.00
2019-05-02T20:49:18.486Z,11.00
2019-05-02T20:51:51.852Z,10.90
2019-05-02T20:54:23.680Z,10.90
2019-05-02T20:56:55.454Z,10.90
2019-05-02T20:59:27.198Z,10.90
2019-05-02T21:01:59.355Z,10.90
2019-05-02T21:04:31.883Z,10.90
2019-05-02T21:07:22.798Z,10.90
2019-05-02T21:10:21.592Z,10.90
2019-05-02T21:12:52.942Z,10.90
2019-05-02T21:15:24.921Z,10.90
2019-05-02T21:17:56.679Z,10.90
2019-05-02T21:20:28.539Z,10.90
2019-05-02T21:23:02.008Z,10.90
2019-05-02T21:25:33.952Z,10.90
2019-05-02T21:28:05.792Z,10.90
2019-05-02T21:30:37.503Z,10.90
2019-05-02T21:33:32.123Z,10.90
2019-05-02T21:36:03.933Z,10.80
2019-05-02T21:38:36.113Z,10.80
2019-05-02T21:41:11.414Z,10.80
2019-05-02T21:43:43.146Z,10.80
2019-05-02T21:46:14.979Z,10.80
2019-05-02T21:48:46.836Z,10.70
2019-05-02T21:51:35.908Z,10.70
2019-05-02T21:54:15.309Z,10.70
2019-05-02T21:56:52.212Z,10.60
2019-05-02T21:59:24.103Z,10.60
2019-05-02T22:01:57.858Z,10.60
2019-05-02T22:04:31.630Z,10.60
2019-05-02T22:07:03.152Z,10.60
2019-05-02T22:09:36.136Z,10.60
2019-05-02T22:12:07.771Z,10.60
2019-05-02T22:14:42.023Z,10.60
2019-05-02T22:17:13.666Z,10.50
2019-05-02T22:19:45.452Z,10.50
2019-05-02T22:22:17.344Z,10.60
2019-05-02T22:24:49.363Z,10.60
2019-05-02T22:27:21.815Z,10.60
2019-05-02T22:29:54.713Z,10.60
2019-05-02T22:32:26.432Z,10.50
2019-05-02T22:34:58.251Z,10.50
2019-05-02T22:37:29.915Z,10.50
2019-05-02T22:40:05.443Z,10.50
2019-05-02T22:42:37.352Z,10.50
2019-05-02T22:45:09.948Z,10.50
2019-05-02T22:47:42.572Z,10.50
2019-05-02T22:50:15.336Z,10.50
2019-05-02T22:52:47.068Z,10.40
2019-05-02T22:55:19.986Z,10.40
2019-05-02T22:57:51.874Z,10.40
2019-05-02T23:00:24.168Z,10.40
2019-05-02T23:02:56.094Z,10.40
2019-05-02T23:05:27.912Z,10.30
2019-05-02T23:07:59.748Z,10.30
2019-05-02T23:10:32.661Z,10.30
2019-05-02T23:13:04.543Z,10.30
2019-05-02T23:15:36.325Z,10.30
2019-05-02T23:18:08.025Z,10.30
2019-05-02T23:20:42.077Z,10.30
2019-05-02T23:23:13.251Z,10.20
2019-05-02T23:26:12.852Z,10.20
2019-05-02T23:28:47.182Z,10.20
2019-05-02T23:31:19.013Z,10.20
2019-05-02T23:34:02.102Z,10.10
2019-05-02T23:36:34.430Z,10.10
2019-05-02T23:39:09.153Z,10.10
2019-05-02T23:41:42.129Z,10.10
2019-05-02T23:44:14.148Z,10.10
2019-05-02T23:46:45.905Z,10.10
2019-05-02T23:49:17.569Z,10.00
2019-05-02T23:51:49.293Z,10.00
2019-05-02T23:54:22.026Z,10.00
2019-05-02T23:56:54.111Z,10.00
2019-05-02T23:59:25.735Z,9.90
